createdAt,value
2019-04-30T00:01:18.785Z,58.56
2019-04-30T00:03:55.830Z,58.56
2019-04-30T00:06:22.621Z,58.60
2019-04-30T00:08:52.620Z,58.67
2019-04-30T00:11:21.118Z,58.77
2019-04-30T00:13:50.240Z,59.00
2019-04-30T00:16:18.823Z,59.41
2019-04-30T00:18:55.554Z,59.71
2019-04-30T00:21:18.789Z,59.98
2019-04-30T00:23:47.816Z,59.59
2019-04-30T00:26:17.305Z,59.63
2019-04-30T00:28:47.690Z,59.35
2019-04-30T00:31:23.495Z,59.21
2019-04-30T00:33:47.171Z,59.62
2019-04-30T00:36:17.355Z,59.42
2019-04-30T00:38:45.902Z,59.69
2019-04-30T00:41:15.566Z,59.36
2019-04-30T00:43:48.003Z,59.63
2019-04-30T00:46:17.427Z,60.43
2019-04-30T00:48:45.583Z,60.31
2019-04-30T00:51:21.127Z,60.01
2019-04-30T00:53:51.390Z,60.05
2019-04-30T00:56:15.794Z,60.04
2019-04-30T00:58:45.269Z,60.03
2019-04-30T01:01:25.272Z,60.38
2019-04-30T01:04:12.151Z,60.37
2019-04-30T01:06:42.374Z,60.43
2019-04-30T01:09:11.603Z,60.59
2019-04-30T01:11:46.807Z,60.50
2019-04-30T01:14:10.159Z,60.71
2019-04-30T01:16:39.452Z,60.72
2019-04-30T01:19:10.013Z,61.04
2019-04-30T01:21:41.759Z,61.29
2019-04-30T01:24:09.054Z,61.12
2019-04-30T01:26:39.273Z,61.67
2019-04-30T01:29:07.888Z,61.41
2019-04-30T01:31:37.328Z,61.37
2019-04-30T01:34:11.534Z,61.20
2019-04-30T01:36:36.559Z,61.68
2019-04-30T01:39:06.108Z,61.86
2019-04-30T01:41:34.487Z,61.74
2019-04-30T01:44:03.698Z,62.28
2019-04-30T01:46:33.026Z,61.86
2019-04-30T01:49:01.387Z,61.82
2019-04-30T01:51:29.801Z,61.80
2019-04-30T01:53:59.451Z,61.67
2019-04-30T01:56:45.961Z,61.88
2019-04-30T01:59:16.270Z,62.07
2019-04-30T02:01:46.355Z,62.34
2019-04-30T02:04:19.672Z,62.34
2019-04-30T02:06:49.309Z,62.47
2019-04-30T02:09:18.928Z,62.58
2019-04-30T02:11:48.870Z,62.72
2019-04-30T02:14:18.925Z,62.44
2019-04-30T02:16:49.463Z,62.54
2019-04-30T02:19:18.825Z,62.58
2019-04-30T02:21:48.649Z,62.41
2019-04-30T02:24:19.189Z,62.30
2019-04-30T02:26:48.470Z,62.25
2019-04-30T02:29:19.010Z,62.58
2019-04-30T02:31:50.103Z,62.53
2019-04-30T02:34:21.777Z,62.54
2019-04-30T02:36:53.827Z,62.91
2019-04-30T02:39:22.199Z,62.84
2019-04-30T02:41:51.105Z,63.00
2019-04-30T02:44:20.003Z,63.04
2019-04-30T02:46:50.476Z,62.79
2019-04-30T02:49:20.556Z,62.79
2019-04-30T02:51:50.057Z,62.92
2019-04-30T02:54:23.827Z,62.85
2019-04-30T02:56:54.649Z,62.70
2019-04-30T02:59:23.058Z,63.00
2019-04-30T03:01:51.476Z,63.37
2019-04-30T03:04:19.943Z,63.15
2019-04-30T03:06:50.351Z,62.86
2019-04-30T03:09:20.158Z,62.75
2019-04-30T03:11:49.857Z,62.75
2019-04-30T03:14:20.108Z,62.64
2019-04-30T03:16:53.532Z,62.41
2019-04-30T03:19:32.801Z,62.28
2019-04-30T03:22:05.512Z,62.38
2019-04-30T03:24:34.302Z,62.48
2019-04-30T03:27:03.025Z,62.47
2019-04-30T03:29:31.413Z,62.40
2019-04-30T03:32:02.903Z,62.36
2019-04-30T03:34:32.762Z,62.54
2019-04-30T03:37:02.037Z,62.49
2019-04-30T03:39:33.809Z,62.46
2019-04-30T03:42:01.399Z,62.53
2019-04-30T03:44:32.407Z,62.50
2019-04-30T03:47:00.374Z,62.58
2019-04-30T03:49:29.878Z,62.28
2019-04-30T03:51:59.927Z,62.45
2019-04-30T03:54:29.486Z,62.69
2019-04-30T03:57:00.889Z,62.50
2019-04-30T03:59:30.302Z,62.67
2019-04-30T04:02:16.012Z,62.63
2019-04-30T04:04:46.170Z,62.63
2019-04-30T04:07:16.202Z,62.50
2019-04-30T04:09:49.896Z,62.38
2019-04-30T04:12:22.161Z,62.46
2019-04-30T04:14:51.218Z,62.24
2019-04-30T04:17:20.649Z,62.03
2019-04-30T04:19:50.694Z,62.29
2019-04-30T04:22:20.627Z,62.50
2019-04-30T04:24:50.554Z,62.18
2019-04-30T04:27:19.799Z,62.73
2019-04-30T04:29:51.125Z,62.68
2019-04-30T04:32:23.543Z,62.93
2019-04-30T04:34:50.600Z,62.32
2019-04-30T04:37:20.314Z,62.87
2019-04-30T04:39:50.165Z,62.78
2019-04-30T04:42:19.725Z,62.86
2019-04-30T04:44:50.141Z,63.12
2019-04-30T04:47:19.915Z,63.03
2019-04-30T04:49:52.978Z,62.92
2019-04-30T04:52:21.421Z,62.95
2019-04-30T04:54:50.616Z,63.19
2019-04-30T04:57:22.586Z,63.06
2019-04-30T04:59:50.093Z,63.23
2019-04-30T05:02:39.580Z,63.24
2019-04-30T05:05:09.681Z,63.06
2019-04-30T05:07:39.965Z,63.31
2019-04-30T05:10:09.215Z,63.42
2019-04-30T05:12:40.049Z,63.75
2019-04-30T05:15:09.480Z,63.57
2019-04-30T05:17:39.761Z,63.47
2019-04-30T05:20:10.018Z,63.67
2019-04-30T05:22:39.042Z,63.18
2019-04-30T05:25:08.845Z,63.11
2019-04-30T05:27:39.068Z,63.24
2019-04-30T05:30:11.767Z,63.02
2019-04-30T05:32:39.057Z,63.35
2019-04-30T05:35:09.375Z,63.22
2019-04-30T05:37:38.472Z,62.70
2019-04-30T05:40:09.210Z,62.94
2019-04-30T05:42:38.636Z,62.23
2019-04-30T05:45:09.320Z,62.54
2019-04-30T05:47:38.859Z,62.80
2019-04-30T05:50:09.027Z,61.94
2019-04-30T05:52:39.709Z,62.16
2019-04-30T05:55:08.595Z,62.35
2019-04-30T05:57:40.794Z,61.93
2019-04-30T06:00:09.994Z,61.44
2019-04-30T06:02:39.914Z,60.96
2019-04-30T06:05:08.886Z,60.16
2019-04-30T06:07:39.421Z,60.02
2019-04-30T06:10:12.993Z,58.45
2019-04-30T06:12:43.086Z,57.92
2019-04-30T06:15:29.687Z,56.88
2019-04-30T06:18:05.211Z,55.41
2019-04-30T06:20:28.876Z,54.20
2019-04-30T06:22:59.683Z,52.74
2019-04-30T06:25:37.255Z,51.10
2019-04-30T06:27:58.994Z,49.80
2019-04-30T06:30:29.716Z,48.30
2019-04-30T06:32:59.311Z,47.20
2019-04-30T06:35:29.408Z,45.44
2019-04-30T06:37:59.087Z,44.82
2019-04-30T06:40:29.298Z,44.04
2019-04-30T06:43:00.654Z,42.69
2019-04-30T06:45:29.426Z,41.52
2019-04-30T06:47:58.824Z,41.03
2019-04-30T06:50:29.173Z,40.53
2019-04-30T06:53:00.964Z,40.34
2019-04-30T06:55:30.948Z,39.33
2019-04-30T06:58:11.563Z,38.90
2019-04-30T07:00:40.028Z,38.55
2019-04-30T07:03:09.803Z,38.53
2019-04-30T07:05:39.077Z,39.75
2019-04-30T07:08:36.101Z,39.37
2019-04-30T07:11:14.161Z,39.30
2019-04-30T07:13:43.864Z,38.65
2019-04-30T07:16:12.360Z,39.28
2019-04-30T07:18:40.812Z,39.21
2019-04-30T07:21:09.254Z,38.24
2019-04-30T07:23:38.719Z,37.63
2019-04-30T07:26:09.051Z,36.89
2019-04-30T07:28:44.690Z,37.09
2019-04-30T07:33:39.640Z,36.48
2019-04-30T07:36:09.625Z,35.94
2019-04-30T07:38:43.129Z,35.70
2019-04-30T07:41:09.547Z,36.31
2019-04-30T07:43:39.264Z,35.79
2019-04-30T07:46:09.579Z,36.58
2019-04-30T07:48:39.981Z,36.89
2019-04-30T07:51:10.458Z,36.92
2019-04-30T07:53:40.162Z,36.41
2019-04-30T07:56:24.001Z,36.79
2019-04-30T07:58:39.220Z,36.42
2019-04-30T08:01:10.399Z,35.79
2019-04-30T08:03:50.056Z,36.33
2019-04-30T08:06:22.038Z,35.87
2019-04-30T08:08:50.692Z,35.56
2019-04-30T08:09:34.157Z,36.25
2019-04-30T08:11:25.653Z,35.14
2019-04-30T08:13:50.188Z,34.09
2019-04-30T08:16:19.100Z,32.89
2019-04-30T08:18:49.224Z,31.91
2019-04-30T08:21:19.045Z,31.85
2019-04-30T08:23:48.960Z,31.40
2019-04-30T08:26:18.762Z,30.89
2019-04-30T08:28:48.750Z,29.85
2019-04-30T08:31:19.401Z,29.37
2019-04-30T08:33:49.094Z,28.82
2019-04-30T08:36:19.547Z,29.39
2019-04-30T08:38:49.523Z,28.49
2019-04-30T08:41:19.291Z,27.89
2019-04-30T08:43:49.638Z,27.02
2019-04-30T08:46:19.011Z,25.99
2019-04-30T08:48:51.653Z,26.20
2019-04-30T08:51:19.120Z,25.96
2019-04-30T08:53:48.658Z,25.09
2019-04-30T08:56:21.687Z,25.01
2019-04-30T08:58:49.079Z,24.62
2019-04-30T09:01:19.506Z,23.44
2019-04-30T09:03:50.898Z,22.46
2019-04-30T09:06:20.230Z,22.35
2019-04-30T09:08:49.342Z,22.54
2019-04-30T09:11:24.715Z,22.10
2019-04-30T09:13:48.812Z,21.51
2019-04-30T09:16:19.349Z,23.35
2019-04-30T09:18:49.410Z,22.88
2019-04-30T09:21:18.647Z,22.54
2019-04-30T09:23:51.913Z,22.18
2019-04-30T09:26:18.719Z,22.51
2019-04-30T09:28:49.247Z,21.25
2019-04-30T09:31:19.651Z,21.23
2019-04-30T09:33:49.281Z,21.42
2019-04-30T09:36:20.620Z,21.56
2019-04-30T09:38:48.565Z,20.96
2019-04-30T09:41:19.110Z,22.26
2019-04-30T09:43:49.274Z,21.31
2019-04-30T09:46:24.527Z,21.14
2019-04-30T09:48:47.737Z,21.64
2019-04-30T09:51:16.642Z,22.46
2019-04-30T09:53:55.820Z,22.32
2019-04-30T09:56:15.851Z,22.51
2019-04-30T09:58:44.300Z,22.27
2019-04-30T10:01:12.933Z,22.43
2019-04-30T10:03:42.245Z,22.66
2019-04-30T10:06:11.150Z,23.28
2019-04-30T10:08:47.859Z,23.19
2019-04-30T10:11:17.617Z,26.42
2019-04-30T10:13:45.969Z,25.38
2019-04-30T10:16:19.533Z,25.93
2019-04-30T10:18:48.101Z,24.75
2019-04-30T10:21:18.976Z,25.28
2019-04-30T10:23:47.104Z,24.08
2019-04-30T10:26:15.904Z,26.81
2019-04-30T10:28:45.196Z,24.04
2019-04-30T10:31:13.570Z,23.42
2019-04-30T10:33:42.016Z,24.78
2019-04-30T10:36:10.653Z,22.94
2019-04-30T10:38:39.429Z,21.76
2019-04-30T10:41:08.803Z,22.80
2019-04-30T10:43:39.363Z,22.44
2019-04-30T10:46:09.659Z,21.27
2019-04-30T10:48:38.387Z,22.73
2019-04-30T10:51:08.909Z,20.74
2019-04-30T10:53:37.076Z,19.67
2019-04-30T10:56:05.511Z,19.72
2019-04-30T10:58:33.915Z,20.50
2019-04-30T11:01:02.445Z,20.39
2019-04-30T11:03:31.093Z,21.60
2019-04-30T11:05:59.815Z,22.09
2019-04-30T11:08:28.611Z,23.03
2019-04-30T11:10:57.099Z,22.98
2019-04-30T11:13:25.497Z,22.86
2019-04-30T11:15:53.956Z,22.51
2019-04-30T11:18:22.649Z,21.84
2019-04-30T11:20:51.722Z,21.42
2019-04-30T11:23:21.384Z,21.15
2019-04-30T11:25:51.108Z,22.12
2019-04-30T11:28:20.911Z,22.12
2019-04-30T11:30:51.502Z,22.11
2019-04-30T11:33:20.144Z,21.53
2019-04-30T11:35:52.846Z,22.08
2019-04-30T11:38:20.495Z,20.95
2019-04-30T11:40:49.112Z,21.16
2019-04-30T11:43:18.255Z,19.67
2019-04-30T11:45:58.690Z,19.15
2019-04-30T11:48:28.845Z,17.77
2019-04-30T11:50:57.109Z,16.20
2019-04-30T11:53:28.778Z,14.14
2019-04-30T11:55:56.093Z,13.15
2019-04-30T11:58:24.877Z,12.83
2019-04-30T12:00:53.380Z,11.18
2019-04-30T12:03:21.766Z,10.52
2019-04-30T12:05:50.528Z,10.00
2019-04-30T12:08:23.280Z,10.19
2019-04-30T12:10:56.356Z,9.96
2019-04-30T12:13:26.092Z,9.06
2019-04-30T12:15:55.844Z,8.23
2019-04-30T12:18:24.372Z,8.36
2019-04-30T12:20:53.120Z,8.62
2019-04-30T12:23:21.607Z,7.73
2019-04-30T12:25:50.115Z,7.80
2019-04-30T12:28:19.552Z,7.62
2019-04-30T12:30:48.991Z,7.87
2019-04-30T12:33:19.127Z,7.53
2019-04-30T12:35:49.159Z,7.62
2019-04-30T12:38:19.249Z,7.12
2019-04-30T12:40:48.405Z,6.97
2019-04-30T12:43:17.248Z,7.18
2019-04-30T12:45:46.044Z,7.08
2019-04-30T12:48:20.004Z,6.98
2019-04-30T12:51:04.548Z,6.56
2019-04-30T12:53:34.584Z,6.71
2019-04-30T12:56:27.122Z,6.55
2019-04-30T12:58:53.446Z,6.97
2019-04-30T13:01:22.212Z,6.24
2019-04-30T13:03:58.728Z,6.51
2019-04-30T13:06:21.594Z,7.08
2019-04-30T13:08:52.586Z,6.05
2019-04-30T13:11:21.670Z,6.19
2019-04-30T13:13:51.357Z,6.16
2019-04-30T13:16:20.394Z,6.92
2019-04-30T13:18:49.370Z,7.01
2019-04-30T13:21:18.443Z,7.66
2019-04-30T13:23:47.109Z,7.97
2019-04-30T13:26:15.571Z,7.58
2019-04-30T13:28:54.351Z,7.90
2019-04-30T13:31:22.705Z,7.84
2019-04-30T13:34:02.401Z,9.08
2019-04-30T13:36:31.269Z,9.68
2019-04-30T13:39:13.422Z,11.12
2019-04-30T13:41:59.407Z,11.65
2019-04-30T13:44:39.423Z,12.20
2019-04-30T13:47:10.668Z,12.28
2019-04-30T13:49:39.486Z,13.95
2019-04-30T13:52:08.167Z,14.75
2019-04-30T13:54:39.714Z,15.26
2019-04-30T13:57:09.081Z,15.85
2019-04-30T13:59:37.678Z,15.16
2019-04-30T14:02:06.403Z,14.86
2019-04-30T14:04:51.544Z,15.02
2019-04-30T14:07:21.713Z,16.25
2019-04-30T14:09:52.442Z,17.73
2019-04-30T14:12:20.997Z,18.77
2019-04-30T14:14:49.481Z,18.49
2019-04-30T14:17:19.010Z,19.57
2019-04-30T14:19:47.679Z,20.07
2019-04-30T14:22:16.275Z,20.48
2019-04-30T14:24:44.736Z,19.66
2019-04-30T14:27:13.276Z,20.04
2019-04-30T14:29:41.738Z,20.13
2019-04-30T14:32:10.278Z,20.27
2019-04-30T14:34:39.538Z,20.27
2019-04-30T14:37:08.098Z,20.76
2019-04-30T14:39:36.812Z,20.80
2019-04-30T14:42:06.472Z,21.01
2019-04-30T14:44:37.438Z,20.85
2019-04-30T14:47:25.785Z,21.33
2019-04-30T14:50:04.408Z,21.95
2019-04-30T14:52:31.088Z,21.14
2019-04-30T14:55:18.728Z,20.39
2019-04-30T14:58:05.411Z,20.64
2019-04-30T15:00:38.840Z,20.10
2019-04-30T15:03:19.377Z,20.47
2019-04-30T15:05:51.348Z,20.77
2019-04-30T15:08:19.405Z,19.59
2019-04-30T15:10:48.030Z,20.88
2019-04-30T15:13:16.579Z,21.49
2019-04-30T15:15:45.246Z,20.60
2019-04-30T15:18:13.822Z,21.09
2019-04-30T15:20:42.566Z,20.84
2019-04-30T15:23:18.886Z,20.86
2019-04-30T15:25:43.293Z,21.21
2019-04-30T15:28:11.785Z,20.92
2019-04-30T15:30:42.002Z,19.56
2019-04-30T15:33:15.613Z,18.41
2019-04-30T15:35:44.230Z,19.09
2019-04-30T15:38:12.847Z,19.08
2019-04-30T15:40:41.486Z,19.43
2019-04-30T15:43:10.563Z,20.55
2019-04-30T15:45:39.233Z,20.17
2019-04-30T15:48:08.573Z,20.57
2019-04-30T15:50:39.169Z,20.54
2019-04-30T15:53:09.352Z,19.52
2019-04-30T15:55:37.876Z,20.30
2019-04-30T15:58:13.983Z,20.35
2019-04-30T16:00:42.570Z,20.60
2019-04-30T16:03:12.660Z,19.77
2019-04-30T16:05:42.699Z,20.11
2019-04-30T16:08:16.073Z,20.77
2019-04-30T16:10:52.064Z,19.70
2019-04-30T16:13:25.048Z,20.65
2019-04-30T16:15:53.466Z,20.80
2019-04-30T16:18:22.141Z,20.90
2019-04-30T16:20:50.604Z,21.33
2019-04-30T16:23:19.855Z,21.29
2019-04-30T16:25:48.436Z,21.57
2019-04-30T16:28:17.232Z,21.32
2019-04-30T16:30:46.129Z,22.52
2019-04-30T16:33:14.566Z,22.46
2019-04-30T16:35:42.989Z,21.75
2019-04-30T16:38:11.426Z,21.75
2019-04-30T16:40:39.890Z,22.40
2019-04-30T16:43:08.532Z,22.21
2019-04-30T16:45:38.833Z,22.54
2019-04-30T16:48:07.861Z,22.43
2019-04-30T16:50:38.226Z,22.04
2019-04-30T16:53:07.336Z,22.58
2019-04-30T16:55:35.874Z,21.94
2019-04-30T16:58:04.664Z,22.54
2019-04-30T17:00:33.270Z,23.32
2019-04-30T17:03:03.447Z,22.58
2019-04-30T17:05:39.646Z,22.99
2019-04-30T17:08:12.915Z,23.36
2019-04-30T17:10:55.272Z,24.04
2019-04-30T17:13:28.986Z,23.35
2019-04-30T17:16:05.393Z,22.92
2019-04-30T17:18:41.675Z,23.21
2019-04-30T17:21:09.863Z,23.80
2019-04-30T17:23:38.524Z,23.35
2019-04-30T17:26:07.048Z,23.68
2019-04-30T17:28:35.559Z,23.80
2019-04-30T17:31:04.116Z,23.89
2019-04-30T17:33:32.663Z,23.57
2019-04-30T17:36:01.054Z,24.54
2019-04-30T17:38:29.560Z,24.36
2019-04-30T17:40:58.033Z,23.57
2019-04-30T17:43:26.403Z,22.61
2019-04-30T17:45:54.867Z,23.89
2019-04-30T17:48:23.663Z,23.65
2019-04-30T17:50:52.023Z,23.69
2019-04-30T17:53:20.698Z,23.63
2019-04-30T17:55:49.202Z,24.05
2019-04-30T17:58:20.454Z,24.12
2019-04-30T18:00:49.530Z,24.11
2019-04-30T18:03:18.953Z,24.09
2019-04-30T18:05:49.178Z,24.38
2019-04-30T18:08:17.991Z,23.85
2019-04-30T18:10:47.612Z,23.69
2019-04-30T18:13:16.439Z,24.01
2019-04-30T18:15:45.144Z,24.13
2019-04-30T18:18:24.818Z,24.43
2019-04-30T18:20:56.897Z,24.62
2019-04-30T18:23:26.859Z,24.10
2019-04-30T18:25:56.957Z,23.62
2019-04-30T18:28:25.498Z,23.77
2019-04-30T18:30:54.278Z,24.84
2019-04-30T18:33:22.700Z,24.76
2019-04-30T18:35:51.131Z,24.80
2019-04-30T18:38:19.526Z,25.29
2019-04-30T18:40:49.547Z,25.35
2019-04-30T18:43:18.919Z,25.26
2019-04-30T18:45:49.492Z,25.16
2019-04-30T18:48:19.505Z,25.35
2019-04-30T18:50:47.967Z,25.36
2019-04-30T18:53:21.112Z,25.51
2019-04-30T18:55:50.766Z,25.66
2019-04-30T18:58:20.118Z,25.77
2019-04-30T19:00:49.456Z,25.50
2019-04-30T19:03:21.327Z,25.33
2019-04-30T19:05:50.025Z,25.36
2019-04-30T19:08:32.340Z,25.39
2019-04-30T19:11:18.924Z,25.60
2019-04-30T19:13:51.512Z,25.48
2019-04-30T19:16:25.704Z,25.34
2019-04-30T19:18:56.189Z,25.46
2019-04-30T19:21:24.656Z,25.89
2019-04-30T19:23:53.093Z,26.04
2019-04-30T19:26:21.567Z,26.18
2019-04-30T19:28:50.410Z,26.19
2019-04-30T19:31:19.906Z,26.07
2019-04-30T19:33:49.006Z,26.23
2019-04-30T19:36:20.337Z,26.27
2019-04-30T19:38:50.655Z,26.69
2019-04-30T19:41:19.375Z,26.62
2019-04-30T19:43:50.022Z,26.71
2019-04-30T19:46:18.881Z,26.55
2019-04-30T19:48:50.437Z,26.53
2019-04-30T19:51:19.598Z,26.45
2019-04-30T19:53:48.970Z,26.48
2019-04-30T19:56:18.342Z,26.95
2019-04-30T19:58:59.258Z,27.37
2019-04-30T20:01:18.058Z,27.07
2019-04-30T20:03:46.773Z,27.48
2019-04-30T20:06:15.263Z,27.55
2019-04-30T20:08:43.675Z,27.80
2019-04-30T20:11:12.119Z,27.94
2019-04-30T20:13:40.620Z,28.05
2019-04-30T20:16:09.621Z,28.26
2019-04-30T20:18:38.983Z,28.65
2019-04-30T20:21:09.415Z,28.61
2019-04-30T20:23:37.798Z,28.89
2019-04-30T20:26:06.178Z,29.02
2019-04-30T20:28:39.976Z,29.37
2019-04-30T20:31:04.907Z,29.78
2019-04-30T20:33:33.283Z,29.61
2019-04-30T20:36:01.753Z,29.71
2019-04-30T20:41:10.586Z,30.06
2019-04-30T20:43:39.536Z,30.54
2019-04-30T20:46:08.650Z,30.66
2019-04-30T20:48:39.316Z,30.93
2019-04-30T20:51:09.589Z,31.11
2019-04-30T20:53:39.326Z,31.49
2019-04-30T20:56:09.250Z,31.73
2019-04-30T20:58:40.510Z,31.95
2019-04-30T21:01:09.605Z,31.95
2019-04-30T21:03:39.549Z,32.12
2019-04-30T21:06:08.846Z,32.26
2019-04-30T21:08:37.471Z,32.39
2019-04-30T21:11:05.977Z,32.65
2019-04-30T21:13:34.392Z,32.75
2019-04-30T21:16:02.746Z,32.49
2019-04-30T21:18:32.569Z,32.76
2019-04-30T21:21:01.184Z,32.98
2019-04-30T21:23:29.711Z,33.13
2019-04-30T21:25:58.916Z,33.00
2019-04-30T21:28:29.517Z,33.01
2019-04-30T21:30:59.507Z,33.11
2019-04-30T21:33:41.568Z,33.10
2019-04-30T21:36:11.776Z,33.12
2019-04-30T21:38:40.244Z,33.08
2019-04-30T21:41:09.991Z,33.05
2019-04-30T21:43:38.433Z,32.93
2019-04-30T21:46:06.911Z,32.77
2019-04-30T21:48:35.314Z,32.88
2019-04-30T21:51:03.738Z,32.95
2019-04-30T21:53:32.132Z,32.65
2019-04-30T21:56:00.514Z,32.44
2019-04-30T21:58:29.327Z,32.07
2019-04-30T22:01:08.671Z,31.29
2019-04-30T22:03:39.402Z,31.64
2019-04-30T22:06:08.466Z,31.35
2019-04-30T22:08:38.806Z,31.66
2019-04-30T22:11:09.564Z,31.70
2019-04-30T22:13:39.465Z,31.74
2019-04-30T22:16:08.402Z,32.32
2019-04-30T22:18:36.786Z,32.20
2019-04-30T22:21:05.551Z,32.11
2019-04-30T22:23:34.005Z,32.40
2019-04-30T22:26:02.560Z,32.75
2019-04-30T22:28:31.047Z,33.00
2019-04-30T22:30:59.598Z,33.39
2019-04-30T22:33:29.234Z,33.40
2019-04-30T22:35:59.543Z,33.04
2019-04-30T22:38:29.604Z,33.59
2019-04-30T22:40:58.980Z,32.77
2019-04-30T22:43:27.503Z,33.21
2019-04-30T22:45:59.459Z,33.27
2019-04-30T22:48:28.697Z,33.84
2019-04-30T22:50:57.349Z,34.08
2019-04-30T22:53:25.793Z,34.02
2019-04-30T22:55:54.408Z,34.07
2019-04-30T22:58:22.888Z,34.17
2019-04-30T23:00:52.976Z,34.17
2019-04-30T23:03:29.161Z,34.21
2019-04-30T23:05:57.564Z,34.11
2019-04-30T23:08:25.939Z,34.06
2019-04-30T23:10:54.331Z,34.38
2019-04-30T23:13:22.862Z,34.58
2019-04-30T23:15:53.780Z,34.07
2019-04-30T23:18:22.213Z,34.30
2019-04-30T23:20:51.093Z,34.23
2019-04-30T23:23:19.487Z,34.23
2019-04-30T23:25:47.927Z,34.25
2019-04-30T23:28:16.642Z,34.43
2019-04-30T23:30:45.093Z,34.67
2019-04-30T23:33:13.502Z,34.72
2019-04-30T23:35:41.949Z,35.22
2019-04-30T23:38:10.434Z,35.58
2019-04-30T23:40:50.164Z,36.18
2019-04-30T23:43:18.892Z,37.89
2019-04-30T23:45:47.345Z,39.52
2019-04-30T23:48:16.173Z,42.74
2019-04-30T23:50:44.615Z,46.19
2019-04-30T23:53:13.445Z,49.35
2019-04-30T23:55:41.913Z,52.51
2019-04-30T23:58:10.287Z,55.70
